Rap ucar surface. Forecast page: RAP Real-Time Weather. model plots ...

Making friends with even the shyest of cats doesn’t

NCAR-RAP Real-Time Weather Data Output produced by METARs form (10 July 2023 07:57 UTC) found at http://weather.rap.ucar.edu/surface/: KGFK 100753Z AUTO 35006KT 10SM ...Page generated from http://weather.rap.ucar.edu/surface/ at Tue, 3 Oct 2023 18:36:46 UTC.Page generated from http://weather.rap.ucar.edu/surface/ at Wed, 11 Oct 2023 22:57:38 UTC.Surface page: RAP Real-Time Weather End date: End time: Loop duration: Text observations Retrieve text format METARs: See stations.txt for a list of stations. Enter 4-letter ICAO id (s): Raw Translated Contour maps - Temperature - Moisture (dewpoint) - Winds/Sea-Level Pressure - 4-panel plot - Theta-E - 24-hour PrecipitationPlymouth State Allows you to create your own surface charts. NCAR/RAP Plotted surface maps, they keep about the past week on their site. Soundings. Wyoming Comprehensive sounding archive, goes back to the 1970s. NCDC Integrated Global Radiosonde Archive Long-term sounding archive in text format. Upper-air. Plymouth State Plot your own …Surface (Current), 925mb Winds (Current), 925mb Temps (Current), 850mb Winds (Current), 850mb Temps (Current), Clouds (All Levels) (Current).Forecast page: RAP Real-Time Weather. model plots or switch to or . Forecast Time (s): 00 hr 03 hr. 06 hr 09 hr. 12 hr 15 hr. 18 hr 21 hr. 24 hr 27 hr. NCAR-RAP Real-Time Weather Data Output produced by METARs form (23 September 2023 21:30 UTC) found at http://weather.rap.ucar.edu/surface/: RJOM 231200Z 03011KT 9999 ...Forecast page: RAP Real-Time Weather. model plots or switch to or . Forecast Time (s): 00 hr 01 hr 02 hr. 03 hr 04 hr 05 hr. 06 hr 07 hr 08 hr. 09 hr 10 hr 11 hr. 12 hr 13 hr 14 hr.NCAR-RAP Real-Time Weather Data Output produced by METARs form (29 September 2023 03:39 UTC) found at http://weather.rap.ucar.edu/surface/: KRNO 290255Z 01008KT 10SM ...Page generated from http://weather.rap.ucar.edu/surface/ at Tue, 10 Oct 2023 08:16:09 UTC.For additional information about the RAP model, visit: https://rapidrefresh.noaa.gov. The RAP suite uses the parameterizations in the following order: Subgrid-scale Cloud …View reflectivity and velocity images from NEXRAD doppler radars. See the surface weather conditions reported nearest you. See winds, temperature, and moisture well above the earth's surface. Become your own weather forecaster using these guidance tools.Page info: RAL Real-Time Weather. Satellite. Help for satellite page . Radar. Help for radar page . Surface. Help for surface page .Page generated from http://weather.rap.ucar.edu/surface/ at Wed, 4 Oct 2023 00:22:04 UTC. Upper-Air page: RAL Real-Time Weather. Winds/Temps at pressures: rawinsonde plot at 925 mb 850 mb 700 mb 500 mb 300 mb 250 mb 200 mb. including contours 925 mb 850 mb 700 mb 500 mb 300 mb 250 mb 200 mb. Skew-T/Log-P diagrams created from rawinsonde data. End date: Quick-look forecast charts. Click the Forecast tab above for more details. This material is based upon work supported by the National Center for Atmospheric Research, a major facility sponsored by the National Science Foundation and managed by the University Corporation for Atmospheric Research. Any opinions, findings and conclusions or ... Page generated from http://weather.rap.ucar.edu/surface/ at Tue, 10 Oct 2023 08:16:09 UTC.NCAR-RAP Real-Time Weather Data Output produced by METARs form (30 September 2023 08:02 UTC) found at http://weather.rap.ucar.edu/surface/: KGUY 300753Z AUTO 19013KT ...NCAR-RAP Real-Time Weather Data Output produced by METARs form (03 October 2023 10:30 UTC) found at http://weather.rap.ucar.edu/surface/: Conditions at: KBOS observed ...Jun 9, 2023 · Page generated from http://weather.rap.ucar.edu/surface/ at Thu, 12 Oct 2023 06:24:38 UTC. Ucar or UCAR may refer to: . University Corporation for Atmospheric Research, a U.S. organization of atmospheric research institutions; Unmanned Combat Armed Rotorcraft, a United States pilotless attack helicopter, currently under development; Ujar Rayon, a province in Azerbaijan; Ucar, Azerbaijan, capital of that region; Úcar, a municipality in the province of Navarre, SpainNews page: RAP Real-Time Weather. 3/18/2023 - Switched GOES-W to GOES-18. The Hawaii and Alaska satellite imagery is now generated from the new GOES-W satellite, GOES-18. The older GOES-W satellite, GOES-17, has been decommissioned. 2/23/2022 - Data ingest server maintenance.19 dec. 2019 ... Surface observations in the Pacific Northwest. Generated 0547 UTC 15-12-19. http://weather.rap.ucar.edu/surface/displaySfc.php?region=lws.NCEP ADP Global Upper Air and Surface Weather Observations (PREPBUFR format) are composed of a global set of surface and upper air reports operationally collected by the National Centers for Environmental Prediction (NCEP). These include land surface, marine surface, radiosonde, pibal and aircraft reports from the Global Telecommunications ...Analysis and forecast of storm intensity and echo tops for aviation developed based on a collaborative effort between NCAR's Research Applications Laboratory, MIT Lincoln Laboratory, and NOAA ESRL's Global Systems Division. Probabilistic Storm Prediction. Development of tools that can distill large amounts of observational and ensemble model ...Quick Forecast: RAP Real-Time Weather. advanced. Quick-look forecast charts. Page generated from http://weather.rap.ucar.edu/surface/ at Wed, 4 Oct 2023 00:22:04 UTC.NCAR-RAP Real-Time Weather Data Output produced by METARs form (24 September 2023 07:27 UTC) found at http://weather.rap.ucar.edu/surface/: KBOI 240653Z 17008KT 10SM ...Forecast page: RAP Real-Time Weather. model plots or switch to or . Forecast Time (s): 00 hr 06 hr. 12 hr 18 hr. 24 hr 30 hr. 36 hr 42 hr. 48 hr 54 hr. NCAR-RAP Real-Time Weather Data Output produced by METARs form (28 September 2023 06:55 UTC) found at http://weather.rap.ucar.edu/surface/: Conditions at: KFPR ... 544 million vehicle hours per year delay. 2.2 to 3.5 billion dollars annually is cost to trucking companies by weather-related delays. Source: Mitretek Systems. Since the late 1990s, RAL has played a pivotal national role bringing the surface transportation and weather communities together to increase traffic safety, efficiency, and mobility.William (Bill) Mahoney is the Director of the Research Applications Laboratory (RAL) at the National Center for Atmospheric Research (NCAR), in Boulder, ...Currently, the RAP suite is supported in SCM only. For additional information about the RAP model, visit: https://rapidrefresh.noaa.gov. The RAP suite uses the parameterizations in the following order: Subgrid-scale Cloud Interstitial; GFS RRTMG Shortwave/Longwave Radiation Scheme; MYNN Surface Layer Scheme; GFS Near-Surface Sea Temperature Scheme17 OWS HICKAM AFB. Surface Plots. UCAR SW Surface Plot. RAWS DATA. NOAA RAWS ... Real Time Wx Data from RAP · ACCUWEATHER · WEATHER CHANNEL · WEATHER UNDERGROUND ...Quick-look forecast charts. Click the Forecast tab above for more details. This material is based upon work supported by the National Center for Atmospheric Research, a major facility sponsored by the National Science Foundation and managed by the University Corporation for Atmospheric Research. Any opinions, findings and conclusions or ... NCAR-RAP Real-Time Weather Data Output produced by METARs form (13 October 2023 05:01 UTC) found at http://weather.rap.ucar.edu/surface/: Conditions at: KSPG observed ... More Surface Currents - A surface current can occur in the open ocean, affected by winds like the westerlies. See how a surface current like the Gulf Stream current works. Advertisement As you've probably gathered by now, wind and water are...KAUS 200053Z 11006KT 10SM FEW100 FEW300 37/16 A2989 RMK AO2 SLP109 T03720161. KAUS 192353Z 12006KT 10SM FEW300 39/14 A2988 RMK AO2 SLP105 T03940144 10411 20361 55004. KAUS 192253Z 17008G16KT 10SM CLR 40/14 A2988 RMK AO2 SLP105 T04000144. KAUS 192153Z COR 12009KT 10SM FEW300 40/14 A2988 RMK AO2 SLP104 T04000139.Forecast page: RAP Real-Time Weather. model plots or switch to or . Forecast Time (s): 00 hr 03 hr. 06 hr 09 hr. 12 hr 15 hr. 18 hr 21 hr. 24 hr 27 hr.NCAR-RAP Real-Time Weather Data Output produced by METARs form (25 September 2023 18:57 UTC) found at http://weather.rap.ucar.edu/surface/: Conditions at: KIND ...Page generated from http://weather.rap.ucar.edu/surface/ at Mon, 25 Sep 2023 04:44:52 UTC.0.5° Velocity. Background: black. gray-shaded terrain. color-shaded terrain. End date: Today 11 Oct 2023 10 Oct 2023 09 Oct 2023 08 Oct 2023 07 Oct 2023. End time: Page generated from http://weather.rap.ucar.edu/surface/ at Tue, 2 May 2023 18:16:29 UTC.http://weather.rap.ucar.edu/surface/ at Tue, 2 May 2023 18:16:29 UTC.ucar - National Surface Forecast - 12 Hour - 24 Hour - 36 Hour - 48 HourPage generated from http://weather.rap.ucar.edu/surface/ at Mon, 25 Sep 2023 04:44:52 UTC.For additional information about the RAP model, visit: https://rapidrefresh.noaa.gov. The RAP suite uses the parameterizations in the following order: Subgrid-scale Cloud Interstitial; GFS RRTMG Shortwave/Longwave Radiation Scheme; MYNN Surface Layer Scheme; GFS Near-Surface Sea Temperature Scheme; RUC Land Surface ModelInformation as of the most recent model cycle. At 1800 UTC, 05 September 2023, INVEST 95 (AL95) was located in the North Atlantic basin at 12.8°N and 41.2°W. The current intensity was -999 kt and the center was moving at -999 kt at a bearing of -999 degrees. The minimum central pressure was -999 mb.KGTU 170756Z AUTO 30005KT 10SM CLR 22/20 A3006 RMK AO2 SLP176 T02220200 PNO $. KGTU 170656Z AUTO 31003KT 10SM CLR 22/20 A3007 RMK AO2 SLP180 T02170200 PNO $. KGTU 170556Z AUTO 00000KT 10SM CLR 22/20 A3008 RMK AO2 SLP183 6//// T02170200 10261 20211 402670200 50000 PNO $. NCAR-RAP Real-Time Weather Data Output produced by METARs form (07 October 2023 22:52 UTC) found at http://weather.rap.ucar.edu/surface/: Conditions at: KPGD observed ...NCAR-RAP Real-Time Weather Data Output produced by METARs form (30 August 2023 15:08 UTC) found at http://weather.rap.ucar.edu/surface/ Conditions at: KPIE observed ... Surface Transportation. Benefits + Impacts. Adverse weather causes countless traffic fatalities as well as innumerable hours lost to traffic congestion. Delays caused by snow, …Information as of the most recent model cycle. At 1800 UTC, 05 September 2023, INVEST 95 (AL95) was located in the North Atlantic basin at 12.8°N and 41.2°W. The current intensity was -999 kt and the center was moving at -999 kt at a bearing of -999 degrees. The minimum central pressure was -999 mb.Page generated from http://weather.rap.ucar.edu/surface/ at Thu, 12 Oct 2023 19:13:18 UTC.NCAR-RAP Real-Time Weather Data Output produced by METARs form (23 September 2023 07:49 UTC) found at http://weather.rap.ucar.edu/surface/: Conditions at: KBOW ... RJAH 040651Z 16007KT 9999 -SHRA SCT006 BKN012 BKN100 27/27 Q1009 RMK 3ST006 5CU012 6AC100 A2980 VIS S-SW 7KM. RJAH 040622Z 16008KT 8000 -SHRA FEW005 BKN006 BKN012 28/28 Q1009 RMK 1ST005 5ST006 6CU012 A2980. RJAH 040600Z 17011KT 9999 -SHRA FEW010 BKN012 28/28 Q1008.Currently, the RAP suite is supported in SCM only. For additional information about the RAP model, visit: https://rapidrefresh.noaa.gov. The RAP suite uses the parameterizations in the following order: Subgrid-scale Cloud Interstitial; GFS RRTMG Shortwave/Longwave Radiation Scheme; MYNN Surface Layer Scheme; GFS Near-Surface Sea Temperature SchemeNCAR-RAP Real-Time Weather Data Output produced by METARs form (17 September 2023 13:57 UTC) found at http://weather.rap.ucar.edu/surface/: Conditions at: KVOA ...Forecast page: RAP Real-Time Weather. model plots or switch to or . Forecast Time (s): 00 hr 01 hr 02 hr. 03 hr 04 hr 05 hr. 06 hr 07 hr 08 hr. 09 hr 10 hr 11 hr. 12 hr 13 hr 14 hr. Page generated from http://weather.rap.ucar.edu/surface/ at Thu, 12 Oct 2023 18:34:43 UTC.Forecast page: RAP Real-Time Weather. model plots or switch to or . Forecast Time (s): 00 hr 06 hr. 12 hr 18 hr. 24 hr 30 hr. 36 hr 42 hr. 48 hr 54 hr. Page generated from http://weather.rap.ucar.edu/surface/ at Mon, 25 Sep 2023 04:44:52 UTC.Page generated from http://weather.rap.ucar.edu/surface/ at Fri, 13 Oct 2023 01:02:40 UTC.NCAR-RAP Real-Time Weather Data Output produced by METARs form (16 July 2023 09:02 UTC) found at http://weather.rap.ucar.edu/surface/: Conditions at: KMLB observed 16 ...Surface page: RAP Real-Time Weather End date: End time: Loop duration: Text observations Retrieve text format METARs: See stations.txt for a list of stations. Enter 4-letter ICAO id (s): Raw Translated Contour maps - Temperature - Moisture (dewpoint) - Winds/Sea-Level Pressure - 4-panel plot - Theta-E - 24-hour Precipitation NCAR-RAP Real-Time Weather Data Output produced by METARs form (27 September 2023 04:53 UTC) found at http://weather.rap.ucar.edu/surface/: Conditions at: KRDU ... Page generated from http://weather.rap.ucar.edu/surface/ at Tue, 10 Oct 2023 08:16:09 UTC.NCAR-RAP Real-Time Weather Data Output produced by METARs form (13 October 2023 05:01 UTC) found at http://weather.rap.ucar.edu/surface/: Conditions at: KSPG observed ... NCAR-RAP Real-Time Weather Data Output produced by METARs form (02 October 2023 19:31 UTC) found at http://weather.rap.ucar.edu/surface/: K04V 021914Z AUTO 16023G31KT ... . Product Archives. ISU Archive (Gempak and iNCAR-RAP Real-Time Weather Data Output produced by METARs Java tool for METAR viewing. advanced. Interactively view surface data (METARs). Note: be patient while the Java tool loads in the space below. Page generated from http://weather.rap.ucar.edu/surface/ at Tue, 10 Oct 2023 08:16:09 UTC. NCAR-RAP Real-Time Weather Data Output produced by METARs form (2 Page generated from http://weather.rap.ucar.edu/surface/ at Sat, 30 Sep 2023 05:10:55 UTC. Page generated from http://weather.rap.ucar.edu/surf...

Continue Reading